SJYR weather

Caju Airport
Pacaraima, Roraima, Brazil

Public forecast

Using degrees Celsius for public forecast. Weather courtesy of forecast.io.

METAR (pilot weather report)

Report is more than 6 hours old.

Closest report is Santa Elena de Uairen Airport, 39.0 nm (72.3 km) WSW. Retrieved 2018/10/29 02:00 UTC (11 months ago):

SVSE 290200Z /////KT 9999 SCT017 26/// Q1013

TAF (pilot weather forecast)

Forecast is more than 12 hours old.

Closest forecast is Kato Airport, 41.0 nm (76.0 km) E. Retrieved 2019/09/06 12:00 UTC (9 days ago):

TAF SYKT 061100Z 0612/0623 10010KT 9999 SCT020 TEMPO 0619/0622 6000 SHRA FEW016CB BKN018